createdAt,value
2019-06-07T00:01:28.088Z,91.00
2019-06-07T00:03:58.855Z,90.90
2019-06-07T00:06:29.531Z,91.30
2019-06-07T00:09:00.301Z,91.30
2019-06-07T00:11:32.568Z,90.80
2019-06-07T00:14:03.229Z,91.10
2019-06-07T00:16:33.905Z,90.70
2019-06-07T00:19:04.855Z,90.70
2019-06-07T00:22:13.518Z,90.80
2019-06-07T00:24:12.651Z,90.90
2019-06-07T00:26:57.616Z,91.00
2019-06-07T00:29:15.383Z,90.40
2019-06-07T00:31:45.783Z,90.40
2019-06-07T00:34:19.108Z,90.60
2019-06-07T00:36:48.592Z,90.60
2019-06-07T00:39:24.684Z,90.90
2019-06-07T00:41:51.926Z,90.60
2019-06-07T00:44:23.343Z,90.70
2019-06-07T00:46:55.285Z,90.70
2019-06-07T00:49:41.116Z,90.70
2019-06-07T00:51:58.230Z,90.70
2019-06-07T00:54:28.882Z,90.30
2019-06-07T00:56:59.404Z,90.50
2019-06-07T00:59:30.153Z,90.50
2019-06-07T01:02:00.702Z,90.70
2019-06-07T01:04:31.335Z,91.00
2019-06-07T01:07:01.939Z,91.00
2019-06-07T01:09:32.915Z,91.10
2019-06-07T01:12:03.538Z,91.30
2019-06-07T01:14:34.238Z,91.50
2019-06-07T01:17:40.087Z,91.70
2019-06-07T01:19:58.140Z,92.30
2019-06-07T01:22:29.542Z,92.20
2019-06-07T01:25:00.554Z,92.70
2019-06-07T01:27:31.300Z,92.30
2019-06-07T01:30:02.103Z,92.40
2019-06-07T01:32:33.419Z,92.50
2019-06-07T01:35:06.508Z,92.50
2019-06-07T01:37:37.194Z,92.80
2019-06-07T01:40:08.671Z,93.10
2019-06-07T01:42:39.433Z,93.10
2019-06-07T01:45:10.706Z,93.30
2019-06-07T01:47:41.282Z,93.50
2019-06-07T01:50:12.219Z,93.70
2019-06-07T01:52:42.891Z,94.10
2019-06-07T01:55:13.882Z,94.20
2019-06-07T01:57:48.412Z,94.00
2019-06-07T02:00:17.495Z,94.00
2019-06-07T02:02:48.531Z,94.00
2019-06-07T02:05:21.572Z,94.00
2019-06-07T02:07:52.590Z,94.20
2019-06-07T02:10:26.349Z,94.00
2019-06-07T02:12:56.280Z,93.80
2019-06-07T02:15:32.041Z,93.80
2019-06-07T02:18:00.826Z,93.90
2019-06-07T02:20:34.211Z,93.80
2019-06-07T02:23:09.474Z,94.00
2019-06-07T02:25:48.665Z,94.10
2019-06-07T02:28:27.470Z,94.60
2019-06-07T02:30:53.265Z,94.50
2019-06-07T02:33:15.873Z,94.70
2019-06-07T02:35:46.496Z,94.60
2019-06-07T02:38:17.315Z,94.50
2019-06-07T02:40:48.086Z,94.60
2019-06-07T02:43:18.859Z,94.50
2019-06-07T02:45:49.422Z,94.70
2019-06-07T02:48:20.186Z,94.80
2019-06-07T02:50:51.028Z,94.80
2019-06-07T02:53:25.101Z,94.90
2019-06-07T02:58:31.104Z,94.70
2019-06-07T03:01:07.796Z,94.60
2019-06-07T03:03:33.075Z,94.50
2019-06-07T03:06:03.602Z,94.60
2019-06-07T03:08:36.577Z,94.60
2019-06-07T03:11:08.204Z,94.50
2019-06-07T03:13:41.014Z,94.40
2019-06-07T03:16:13.640Z,94.30
2019-06-07T03:18:50.928Z,94.60
2019-06-07T03:21:23.999Z,94.70
2019-06-07T03:23:58.800Z,94.70
2019-06-07T03:26:31.234Z,94.90
2019-06-07T03:29:01.709Z,94.90
2019-06-07T03:31:40.262Z,95.30
2019-06-07T03:34:04.660Z,94.90
2019-06-07T03:36:38.885Z,94.90
2019-06-07T03:39:07.754Z,95.00
2019-06-07T03:41:50.205Z,95.00
2019-06-07T03:44:10.588Z,95.00
2019-06-07T03:46:41.846Z,95.00
2019-06-07T03:49:12.822Z,95.00
2019-06-07T03:51:43.447Z,95.10
2019-06-07T03:54:14.144Z,95.20
2019-06-07T03:56:44.830Z,95.30
2019-06-07T03:59:15.497Z,95.30
2019-06-07T04:01:45.999Z,95.30
2019-06-07T04:04:16.795Z,95.30
2019-06-07T04:06:47.412Z,95.20
2019-06-07T04:09:17.969Z,95.40
2019-06-07T04:11:48.518Z,95.40
2019-06-07T04:14:19.170Z,95.50
2019-06-07T04:16:49.995Z,95.70
2019-06-07T04:19:20.523Z,95.60
2019-06-07T04:21:52.224Z,95.70
2019-06-07T04:24:22.745Z,95.70
2019-06-07T04:26:53.390Z,96.00
2019-06-07T04:29:32.841Z,96.00
2019-06-07T04:31:56.325Z,96.10
2019-06-07T04:34:26.923Z,96.20
2019-06-07T04:36:59.686Z,96.00
2019-06-07T04:39:33.501Z,95.90
2019-06-07T04:42:03.076Z,95.80
2019-06-07T04:44:39.347Z,95.90
2019-06-07T04:47:09.967Z,96.00
2019-06-07T04:49:45.596Z,95.90
2019-06-07T04:52:17.300Z,95.90
2019-06-07T04:54:48.078Z,96.00
2019-06-07T04:57:18.678Z,95.90
2019-06-07T05:00:22.599Z,95.80
2019-06-07T05:02:21.961Z,95.90
2019-06-07T05:04:52.674Z,95.40
2019-06-07T05:07:23.268Z,95.60
2019-06-07T05:09:54.096Z,95.50
2019-06-07T05:12:25.059Z,95.80
2019-06-07T05:14:55.731Z,95.60
2019-06-07T05:17:26.427Z,95.50
2019-06-07T05:30:36.594Z,95.60
2019-06-07T05:32:46.087Z,95.60
2019-06-07T05:35:16.946Z,95.40
2019-06-07T05:37:47.894Z,95.30
2019-06-07T05:40:21.636Z,95.20
2019-06-07T05:42:52.237Z,95.20
2019-06-07T05:45:25.806Z,95.10
2019-06-07T05:47:56.373Z,95.30
2019-06-07T05:50:41.408Z,95.20
2019-06-07T05:53:00.178Z,94.80
2019-06-07T05:55:32.718Z,94.70
2019-06-07T05:58:03.523Z,94.40
2019-06-07T06:00:36.408Z,94.30
2019-06-07T06:03:07.478Z,94.10
2019-06-07T06:05:43.161Z,94.30
2019-06-07T06:08:11.312Z,93.90
2019-06-07T06:10:46.132Z,93.70
2019-06-07T06:13:14.487Z,93.60
2019-06-07T06:19:16.064Z,93.60
2019-06-07T06:21:46.635Z,93.30
2019-06-07T06:24:17.262Z,93.40
2019-06-07T06:26:52.271Z,92.90
2019-06-07T06:29:20.097Z,93.40
2019-06-07T06:32:40.044Z,93.20
2019-06-07T06:34:23.739Z,93.20
2019-06-07T06:36:54.529Z,93.10
2019-06-07T06:39:25.031Z,92.90
2019-06-07T06:42:03.323Z,92.90
2019-06-07T06:44:27.962Z,92.40
2019-06-07T06:46:58.740Z,92.40
2019-06-07T06:49:30.385Z,92.60
2019-06-07T06:52:00.906Z,92.60
2019-06-07T06:54:40.931Z,92.40
2019-06-07T06:57:19.180Z,92.30
2019-06-07T06:59:39.539Z,92.20
2019-06-07T07:02:09.650Z,92.00
2019-06-07T07:04:41.911Z,91.90
2019-06-07T07:07:12.544Z,91.50
2019-06-07T07:09:47.144Z,91.70
2019-06-07T07:12:15.486Z,91.20
2019-06-07T07:14:49.541Z,90.90
2019-06-07T07:17:18.616Z,90.90
2019-06-07T07:19:50.430Z,90.90
2019-06-07T07:22:21.542Z,90.90
2019-06-07T07:24:54.564Z,90.80
2019-06-07T07:27:24.615Z,91.30
2019-06-07T07:30:34.389Z,90.90
2019-06-07T07:32:27.435Z,90.50
2019-06-07T07:35:00.463Z,91.20
2019-06-07T07:37:30.286Z,90.60
2019-06-07T07:40:21.257Z,90.20
2019-06-07T07:42:32.966Z,89.80
2019-06-07T07:45:05.021Z,90.10
2019-06-07T07:47:35.909Z,90.10
2019-06-07T07:50:07.350Z,90.40
2019-06-07T07:52:38.339Z,90.10
2019-06-07T07:55:09.278Z,90.00
2019-06-07T07:57:39.911Z,90.50
2019-06-07T08:00:48.763Z,90.00
2019-06-07T08:02:43.150Z,90.10
2019-06-07T08:05:23.427Z,89.50
2019-06-07T08:07:50.037Z,89.50
2019-06-07T08:10:19.829Z,89.20
2019-06-07T08:13:08.753Z,89.50
2019-06-07T08:15:22.951Z,89.90
2019-06-07T08:17:58.057Z,89.30
2019-06-07T08:20:26.040Z,88.00
2019-06-07T08:22:59.759Z,87.00
2019-06-07T08:25:28.924Z,87.70
2019-06-07T08:27:59.665Z,87.70
2019-06-07T08:33:24.857Z,86.80
2019-06-07T08:38:24.818Z,84.20
2019-06-07T08:40:39.198Z,84.00
2019-06-07T08:43:19.845Z,83.90
2019-06-07T08:45:42.161Z,84.10
2019-06-07T08:48:26.985Z,85.00
2019-06-07T08:50:45.435Z,82.00
2019-06-07T08:53:16.113Z,82.10
2019-06-07T08:55:46.708Z,80.90
2019-06-07T08:58:17.315Z,81.80
2019-06-07T09:00:48.399Z,82.40
2019-06-07T09:03:18.924Z,81.30
2019-06-07T09:05:49.814Z,80.50
2019-06-07T09:08:29.837Z,80.10
2019-06-07T09:10:54.030Z,81.90
2019-06-07T09:13:24.982Z,79.90
2019-06-07T09:15:58.803Z,78.80
2019-06-07T09:18:42.187Z,78.40
2019-06-07T09:21:01.528Z,78.40
2019-06-07T09:23:32.182Z,79.40
2019-06-07T09:26:10.579Z,78.10
2019-06-07T09:28:35.307Z,79.20
2019-06-07T09:31:09.779Z,75.10
2019-06-07T09:33:38.222Z,75.30
2019-06-07T09:36:12.650Z,74.80
2019-06-07T09:38:42.024Z,75.40
2019-06-07T09:41:12.671Z,75.30
2019-06-07T09:44:01.908Z,73.90
2019-06-07T09:46:17.092Z,71.50
2019-06-07T09:49:10.659Z,71.30
2019-06-07T09:51:20.785Z,72.70
2019-06-07T09:53:51.562Z,70.50
2019-06-07T09:56:22.159Z,70.30
2019-06-07T09:58:54.188Z,71.00
2019-06-07T10:01:25.111Z,69.10
2019-06-07T10:03:58.765Z,70.10
2019-06-07T10:06:29.341Z,70.60
2019-06-07T10:10:08.249Z,70.20
2019-06-07T10:11:35.005Z,68.00
2019-06-07T10:14:06.897Z,67.40
2019-06-07T10:16:46.639Z,67.20
2019-06-07T10:19:09.994Z,66.90
2019-06-07T10:21:41.811Z,68.10
2019-06-07T10:24:12.565Z,66.70
2019-06-07T10:26:43.437Z,68.60
2019-06-07T10:29:14.076Z,66.50
2019-06-07T10:31:44.834Z,65.80
2019-06-07T10:34:15.629Z,67.20
2019-06-07T10:36:46.555Z,66.20
2019-06-07T10:39:17.276Z,66.30
2019-06-07T10:41:47.984Z,66.60
2019-06-07T10:44:25.047Z,64.50
2019-06-07T10:46:59.061Z,65.20
2019-06-07T10:49:27.931Z,65.80
2019-06-07T10:52:02.897Z,66.50
2019-06-07T10:54:31.950Z,66.80
2019-06-07T10:57:02.979Z,65.20
2019-06-07T10:59:33.620Z,65.80
2019-06-07T11:02:05.611Z,64.90
2019-06-07T11:04:36.356Z,65.50
2019-06-07T11:07:08.188Z,65.20
2019-06-07T11:09:39.189Z,64.40
2019-06-07T11:12:10.765Z,64.00
2019-06-07T11:14:41.903Z,64.90
2019-06-07T11:17:13.386Z,65.20
2019-06-07T11:19:44.240Z,66.30
2019-06-07T11:22:14.838Z,66.10
2019-06-07T11:24:45.475Z,65.90
2019-06-07T11:27:16.555Z,66.80
2019-06-07T11:29:48.299Z,65.60
2019-06-07T11:32:19.067Z,66.60
2019-06-07T11:34:49.764Z,67.80
2019-06-07T11:37:20.504Z,65.90
2019-06-07T11:39:51.179Z,66.90
2019-06-07T11:42:22.079Z,66.70
2019-06-07T11:44:56.807Z,66.50
2019-06-07T11:47:24.778Z,67.00
2019-06-07T11:50:01.494Z,66.50
2019-06-07T11:52:32.900Z,66.90
2019-06-07T11:55:08.819Z,66.70
2019-06-07T11:57:38.991Z,67.30
2019-06-07T12:00:16.438Z,67.50
2019-06-07T12:02:47.308Z,67.20
2019-06-07T12:05:20.140Z,67.00
2019-06-07T12:07:50.198Z,67.00
2019-06-07T12:10:23.090Z,65.40
2019-06-07T12:12:53.676Z,66.00
2019-06-07T12:15:24.337Z,65.10
2019-06-07T12:17:54.967Z,63.40
2019-06-07T12:20:25.559Z,62.20
2019-06-07T12:22:56.049Z,64.70
2019-06-07T12:25:26.818Z,64.00
2019-06-07T12:27:57.428Z,66.50
2019-06-07T12:30:28.264Z,63.20
2019-06-07T12:32:59.077Z,64.30
2019-06-07T12:35:29.724Z,63.70
2019-06-07T12:38:00.294Z,63.40
2019-06-07T12:40:32.417Z,63.40
2019-06-07T12:43:03.090Z,62.00
2019-06-07T12:45:44.554Z,60.60
2019-06-07T12:48:06.118Z,60.00
2019-06-07T12:50:43.032Z,60.50
2019-06-07T12:53:10.367Z,60.50
2019-06-07T12:55:42.178Z,60.30
2019-06-07T12:58:13.806Z,59.40
2019-06-07T13:00:44.934Z,59.20
2019-06-07T13:03:16.274Z,59.60
2019-06-07T13:05:46.874Z,59.80
2019-06-07T13:08:17.671Z,58.80
2019-06-07T13:10:48.447Z,57.40
2019-06-07T13:13:20.938Z,58.00
2019-06-07T13:15:51.914Z,58.40
2019-06-07T13:18:24.780Z,56.60
2019-06-07T13:20:55.730Z,56.70
2019-06-07T13:23:28.914Z,55.80
2019-06-07T13:25:59.927Z,55.80
2019-06-07T13:28:31.281Z,56.60
2019-06-07T13:31:02.590Z,57.80
2019-06-07T13:33:38.372Z,56.00
2019-06-07T13:36:05.909Z,55.80
2019-06-07T13:38:36.483Z,54.90
2019-06-07T13:41:07.153Z,54.30
2019-06-07T13:43:37.854Z,55.60
2019-06-07T13:46:12.690Z,54.80
2019-06-07T13:48:40.852Z,54.40
2019-06-07T13:51:11.737Z,55.20
2019-06-07T13:53:42.674Z,55.90
2019-06-07T13:56:13.162Z,56.30
2019-06-07T13:58:43.760Z,55.80
2019-06-07T14:01:14.240Z,56.90
2019-06-07T14:03:45.110Z,57.20
2019-06-07T14:06:15.960Z,56.20
2019-06-07T14:08:48.029Z,55.90
2019-06-07T14:11:19.404Z,55.90
2019-06-07T14:13:50.199Z,56.80
2019-06-07T14:16:22.092Z,57.30
2019-06-07T14:18:53.111Z,57.00
2019-06-07T14:21:24.614Z,57.60
2019-06-07T14:23:55.388Z,57.60
2019-06-07T14:26:27.344Z,57.90
2019-06-07T14:28:59.740Z,58.10
2019-06-07T14:31:32.227Z,58.10
2019-06-07T14:34:03.486Z,58.10
2019-06-07T14:36:34.308Z,58.70
2019-06-07T14:39:06.727Z,57.70
2019-06-07T14:41:37.361Z,56.60
2019-06-07T14:44:07.994Z,57.20
2019-06-07T14:46:38.513Z,57.60
2019-06-07T14:49:09.274Z,58.50
2019-06-07T14:51:40.259Z,56.10
2019-06-07T14:54:10.758Z,56.10
2019-06-07T14:56:41.716Z,55.90
2019-06-07T14:59:12.771Z,57.30
2019-06-07T15:01:44.496Z,58.50
2019-06-07T15:04:15.246Z,57.60
2019-06-07T15:06:45.961Z,56.30
2019-06-07T15:09:16.523Z,56.70
2019-06-07T15:11:47.372Z,57.20
2019-06-07T15:14:18.102Z,57.80
2019-06-07T15:16:48.690Z,58.20
2019-06-07T15:19:19.398Z,59.50
2019-06-07T15:21:50.102Z,59.40
2019-06-07T15:24:20.852Z,58.50
2019-06-07T15:26:51.399Z,58.00
2019-06-07T15:29:22.323Z,59.30
2019-06-07T15:31:52.852Z,60.10
2019-06-07T15:34:23.604Z,59.70
2019-06-07T15:36:54.145Z,59.70
2019-06-07T15:39:24.818Z,59.80
2019-06-07T15:41:55.460Z,60.40
2019-06-07T15:44:26.170Z,60.60
2019-06-07T15:46:57.063Z,60.50
2019-06-07T15:49:27.671Z,61.20
2019-06-07T15:51:58.354Z,61.40
2019-06-07T15:54:30.169Z,62.60
2019-06-07T15:57:01.035Z,63.70
2019-06-07T15:59:33.101Z,64.00
2019-06-07T16:02:03.946Z,63.00
2019-06-07T16:04:35.586Z,61.70
2019-06-07T16:07:06.435Z,63.00
2019-06-07T16:09:36.947Z,63.80
2019-06-07T16:12:08.510Z,64.10
2019-06-07T16:14:39.183Z,61.90
2019-06-07T16:17:09.937Z,62.10
2019-06-07T16:19:44.464Z,63.80
2019-06-07T16:22:13.107Z,64.50
2019-06-07T16:24:43.914Z,64.20
2019-06-07T16:27:14.632Z,63.00
2019-06-07T16:29:45.619Z,63.40
2019-06-07T16:32:16.325Z,63.40
2019-06-07T16:34:47.064Z,63.00
2019-06-07T16:37:17.762Z,62.10
2019-06-07T16:39:48.668Z,62.50
2019-06-07T16:42:19.426Z,62.70
2019-06-07T16:44:49.991Z,62.70
2019-06-07T16:47:20.625Z,63.40
2019-06-07T16:49:51.173Z,64.00
2019-06-07T16:52:21.654Z,64.10
2019-06-07T16:54:52.678Z,63.70
2019-06-07T16:57:23.610Z,62.80
2019-06-07T16:59:54.235Z,62.50
2019-06-07T17:02:24.935Z,63.30
2019-06-07T17:04:55.669Z,64.40
2019-06-07T17:07:26.302Z,64.90
2019-06-07T17:09:57.211Z,65.50
2019-06-07T17:12:27.807Z,64.40
2019-06-07T17:14:58.493Z,64.50
2019-06-07T17:17:29.294Z,64.70
2019-06-07T17:19:59.889Z,64.90
2019-06-07T17:22:30.673Z,65.30
2019-06-07T17:25:01.399Z,66.20
2019-06-07T17:27:32.438Z,66.50
2019-06-07T17:30:04.556Z,66.50
2019-06-07T17:32:49.523Z,66.80
2019-06-07T17:35:07.701Z,67.00
2019-06-07T17:37:38.331Z,67.20
2019-06-07T17:40:09.995Z,67.60
2019-06-07T17:42:40.775Z,68.50
2019-06-07T17:45:12.147Z,67.70
2019-06-07T17:47:43.732Z,68.20
2019-06-07T17:50:15.387Z,68.00
2019-06-07T17:52:46.228Z,68.40
2019-06-07T17:55:18.096Z,67.90
2019-06-07T17:57:48.986Z,67.80
2019-06-07T18:00:29.100Z,68.20
2019-06-07T18:02:53.147Z,68.20
2019-06-07T18:05:24.954Z,68.40
2019-06-07T18:07:56.719Z,69.20
2019-06-07T18:10:36.306Z,69.20
2019-06-07T18:13:06.917Z,69.40
2019-06-07T18:15:40.577Z,69.80
2019-06-07T18:18:12.360Z,70.50
2019-06-07T18:20:43.332Z,70.60
2019-06-07T18:23:14.079Z,71.40
2019-06-07T18:25:46.319Z,71.70
2019-06-07T18:28:17.296Z,72.20
2019-06-07T18:30:48.633Z,72.60
2019-06-07T18:33:19.515Z,72.90
2019-06-07T18:35:51.297Z,73.30
2019-06-07T18:38:21.867Z,73.80
2019-06-07T18:40:53.291Z,74.00
2019-06-07T18:43:23.890Z,74.50
2019-06-07T18:45:55.969Z,75.10
2019-06-07T18:48:26.689Z,75.50
2019-06-07T18:50:59.057Z,75.80
2019-06-07T18:53:29.910Z,76.20
2019-06-07T18:56:00.556Z,76.50
2019-06-07T18:58:31.407Z,77.50
2019-06-07T19:01:02.622Z,77.70
2019-06-07T19:03:33.595Z,78.20
2019-06-07T19:06:04.435Z,78.40
2019-06-07T19:08:35.005Z,78.40
2019-06-07T19:11:05.754Z,79.20
2019-06-07T19:13:36.384Z,79.60
2019-06-07T19:16:07.014Z,80.20
2019-06-07T19:18:37.675Z,81.00
2019-06-07T19:21:08.615Z,81.20
2019-06-07T19:23:40.271Z,81.90
2019-06-07T19:26:10.940Z,82.50
2019-06-07T19:28:41.607Z,82.90
2019-06-07T19:31:12.349Z,83.30
2019-06-07T19:33:49.043Z,84.10
2019-06-07T19:36:15.303Z,84.20
2019-06-07T19:38:45.955Z,84.40
2019-06-07T19:41:19.747Z,85.40
2019-06-07T19:43:48.791Z,85.90
2019-06-07T19:46:19.690Z,86.60
2019-06-07T19:48:50.407Z,87.00
2019-06-07T19:51:22.087Z,87.10
2019-06-07T19:53:52.940Z,87.90
2019-06-07T19:56:23.779Z,88.00
2019-06-07T19:58:55.445Z,88.90
2019-06-07T20:01:26.231Z,90.00
2019-06-07T20:03:58.013Z,90.40
2019-06-07T20:06:28.664Z,91.00
2019-06-07T20:09:00.979Z,90.70
2019-06-07T20:11:33.064Z,90.70
2019-06-07T20:14:05.036Z,90.90
2019-06-07T20:16:36.148Z,91.10
2019-06-07T20:19:06.810Z,91.70
2019-06-07T20:21:37.487Z,92.00
2019-06-07T20:24:24.706Z,92.00
2019-06-07T20:26:40.443Z,91.70
2019-06-07T20:29:25.478Z,91.50
2019-06-07T20:31:43.805Z,91.40
2019-06-07T20:34:14.737Z,91.20
2019-06-07T20:36:46.028Z,91.10
2019-06-07T20:39:17.838Z,91.00
2019-06-07T20:41:48.467Z,91.00
2019-06-07T20:44:19.392Z,90.20
2019-06-07T20:46:50.366Z,90.10
2019-06-07T20:49:20.853Z,90.70
2019-06-07T20:51:51.488Z,91.10
2019-06-07T20:54:21.968Z,90.60
2019-06-07T20:56:52.560Z,90.00
2019-06-07T20:59:23.164Z,88.90
2019-06-07T21:01:53.822Z,87.10
2019-06-07T21:04:24.431Z,85.20
2019-06-07T21:06:55.140Z,83.90
2019-06-07T21:09:25.796Z,82.90
2019-06-07T21:11:56.726Z,83.40
2019-06-07T21:14:27.302Z,84.50
2019-06-07T21:16:58.064Z,85.30
2019-06-07T21:19:28.723Z,86.90
2019-06-07T21:22:00.409Z,86.40
2019-06-07T21:24:31.202Z,87.20
2019-06-07T21:27:03.380Z,87.60
2019-06-07T21:29:34.344Z,87.80
2019-06-07T21:32:05.394Z,85.60
2019-06-07T21:34:36.496Z,85.20
2019-06-07T21:37:07.895Z,85.20
2019-06-07T21:39:38.719Z,80.90
2019-06-07T21:42:10.247Z,81.00
2019-06-07T21:44:40.951Z,80.80
2019-06-07T21:47:12.549Z,81.10
2019-06-07T21:49:43.402Z,82.30
2019-06-07T21:52:14.387Z,81.90
2019-06-07T21:54:45.460Z,83.20
2019-06-07T21:57:16.372Z,83.50
2019-06-07T21:59:47.248Z,84.40
2019-06-07T22:02:18.072Z,84.60
2019-06-07T22:04:48.840Z,85.10
2019-06-07T22:07:19.593Z,85.50
2019-06-07T22:09:50.142Z,85.20
2019-06-07T22:12:21.090Z,86.00
2019-06-07T22:14:51.791Z,85.60
2019-06-07T22:17:22.287Z,85.40
2019-06-07T22:19:52.988Z,85.70
2019-06-07T22:22:23.630Z,85.20
2019-06-07T22:24:54.327Z,84.60
2019-06-07T22:27:25.449Z,83.90
2019-06-07T22:29:56.108Z,82.90
2019-06-07T22:32:26.648Z,83.30
2019-06-07T22:34:57.361Z,82.90
2019-06-07T22:37:28.126Z,83.90
2019-06-07T22:39:58.909Z,81.70
2019-06-07T22:42:29.476Z,81.20
2019-06-07T22:45:00.163Z,81.00
2019-06-07T22:47:30.810Z,79.50
2019-06-07T22:50:01.538Z,79.70
2019-06-07T22:52:32.598Z,79.10
2019-06-07T22:55:04.055Z,79.40
2019-06-07T22:57:52.658Z,79.30
2019-06-07T23:00:26.046Z,78.60
2019-06-07T23:02:56.822Z,78.80
2019-06-07T23:05:27.525Z,79.50
2019-06-07T23:07:58.240Z,78.50
2019-06-07T23:10:28.978Z,78.70
2019-06-07T23:12:59.669Z,79.30
2019-06-07T23:15:30.409Z,78.30
2019-06-07T23:18:01.165Z,78.50
2019-06-07T23:20:31.912Z,78.00
2019-06-07T23:23:02.636Z,78.70
2019-06-07T23:25:33.310Z,79.10
2019-06-07T23:28:04.129Z,79.20
2019-06-07T23:30:35.050Z,79.90
2019-06-07T23:33:05.614Z,79.20
2019-06-07T23:35:36.209Z,78.90
2019-06-07T23:38:06.904Z,80.00
2019-06-07T23:40:37.589Z,78.30
2019-06-07T23:43:08.301Z,78.10
2019-06-07T23:45:39.111Z,77.60
2019-06-07T23:48:09.746Z,79.00
2019-06-07T23:50:40.433Z,79.10
2019-06-07T23:53:11.687Z,78.40
2019-06-07T23:55:43.503Z,78.70
2019-06-07T23:58:14.292Z,79.50
